createdAt,value
2022-11-21T00:04:46.961Z,-3.09
2022-11-21T00:09:49.968Z,-3.07
2022-11-21T00:14:53.077Z,-3.08
2022-11-21T00:19:56.055Z,-3.11
2022-11-21T00:24:59.343Z,-3.19
2022-11-21T00:30:02.211Z,-3.24
2022-11-21T00:35:06.635Z,-3.29
2022-11-21T00:40:10.505Z,-3.35
2022-11-21T00:45:13.469Z,-3.52
2022-11-21T00:50:16.583Z,-3.72
2022-11-21T00:55:19.482Z,-3.83
2022-11-21T01:00:22.489Z,-3.90
2022-11-21T01:05:25.392Z,-3.94
2022-11-21T01:10:28.296Z,-4.03
2022-11-21T01:15:31.506Z,-4.15
2022-11-21T01:20:34.411Z,-4.28
2022-11-21T01:25:37.520Z,-4.38
2022-11-21T01:30:40.529Z,-4.45
2022-11-21T01:35:43.532Z,-4.53
2022-11-21T01:40:46.537Z,-4.55
2022-11-21T01:45:55.487Z,-4.46
2022-11-21T01:51:05.916Z,-4.32
2022-11-21T01:56:09.814Z,-4.25
2022-11-21T02:01:13.282Z,-4.24
2022-11-21T02:06:16.829Z,-4.23
2022-11-21T02:11:41.294Z,-4.27
2022-11-21T02:16:44.549Z,-4.38
2022-11-21T02:22:12.529Z,-4.54
2022-11-21T02:27:16.664Z,-4.67
2022-11-21T02:32:33.916Z,-4.75
2022-11-21T02:37:37.747Z,-4.71
2022-11-21T02:43:03.889Z,-4.64
2022-11-21T02:48:07.822Z,-4.57
2022-11-21T02:53:13.606Z,-4.56
2022-11-21T02:58:16.699Z,-4.60
2022-11-21T03:03:19.702Z,-4.61
2022-11-21T03:08:22.914Z,-4.57
2022-11-21T03:13:25.819Z,-4.49
2022-11-21T03:18:28.825Z,-4.39
2022-11-21T03:23:31.933Z,-4.30
2022-11-21T03:28:35.102Z,-4.23
2022-11-21T03:33:38.048Z,-4.18
2022-11-21T03:38:41.263Z,-4.19
2022-11-21T03:43:44.266Z,-4.17
2022-11-21T03:48:47.475Z,-4.15
2022-11-21T03:53:50.687Z,-4.12
2022-11-21T03:58:54.629Z,-4.11
2022-11-21T04:03:58.726Z,-4.15
2022-11-21T04:09:01.753Z,-4.25
2022-11-21T04:14:04.863Z,-4.30
2022-11-21T04:19:07.868Z,-4.33
2022-11-21T04:24:11.188Z,-4.32
2022-11-21T04:29:14.189Z,-4.31
2022-11-21T04:34:17.404Z,-4.29
2022-11-21T04:39:20.304Z,-4.28
2022-11-21T04:44:23.313Z,-4.27
2022-11-21T04:49:26.214Z,-4.29
2022-11-21T04:54:29.423Z,-4.27
2022-11-21T04:59:32.534Z,-4.26
2022-11-21T05:04:35.540Z,-4.23
2022-11-21T05:09:38.548Z,-4.22
2022-11-21T05:14:41.552Z,-4.25
2022-11-21T05:19:44.562Z,-4.29
2022-11-21T05:24:47.566Z,-4.36
2022-11-21T05:29:50.579Z,-4.38
2022-11-21T05:34:53.682Z,-4.41
2022-11-21T05:39:56.796Z,-4.41
2022-11-21T05:44:59.797Z,-4.45
2022-11-21T05:50:02.802Z,-4.52
2022-11-21T05:55:06.171Z,-4.55
2022-11-21T06:00:10.017Z,-4.56
2022-11-21T06:05:12.953Z,-4.57
2022-11-21T06:10:18.008Z,-4.61
2022-11-21T06:15:21.009Z,-4.64
2022-11-21T06:20:24.120Z,-4.67
2022-11-21T06:25:27.125Z,-4.69
2022-11-21T06:30:30.233Z,-4.75
2022-11-21T06:35:37.343Z,-4.82
2022-11-21T06:40:41.061Z,-4.81
2022-11-21T06:45:44.065Z,-4.74
2022-11-21T06:50:47.166Z,-4.66
2022-11-21T06:55:50.286Z,-4.56
2022-11-21T07:00:53.525Z,-4.42
2022-11-21T07:06:00.907Z,-4.35
2022-11-21T07:16:32.619Z,-4.18
2022-11-21T07:21:35.734Z,-4.12
2022-11-21T07:26:38.749Z,-4.05
2022-11-21T07:31:41.848Z,-4.00
2022-11-21T07:36:45.064Z,-3.97
2022-11-21T07:41:48.272Z,-3.96
2022-11-21T07:46:55.754Z,-3.91
2022-11-21T07:51:58.684Z,-3.86
2022-11-21T07:57:01.794Z,-3.80
2022-11-21T08:02:05.166Z,-3.72
2022-11-21T08:07:10.910Z,-3.66
2022-11-21T08:12:14.507Z,-3.57
2022-11-21T08:17:18.833Z,-3.44
2022-11-21T08:22:21.875Z,-3.33
2022-11-21T08:27:24.952Z,-3.18
2022-11-21T08:32:27.959Z,-3.02
2022-11-21T08:37:31.243Z,-2.85
2022-11-21T08:42:34.381Z,-2.79
2022-11-21T08:47:37.716Z,-2.79
2022-11-21T08:52:41.009Z,-2.70
2022-11-21T08:57:44.124Z,-2.60
2022-11-21T09:02:47.226Z,-2.53
2022-11-21T09:07:57.521Z,-2.48
2022-11-21T09:13:00.724Z,-2.39
2022-11-21T09:18:04.794Z,-2.31
2022-11-21T09:23:13.532Z,-2.30
2022-11-21T09:28:16.593Z,-2.20
2022-11-21T09:33:19.807Z,-2.10
2022-11-21T09:38:24.418Z,-1.96
2022-11-21T09:43:55.512Z,-1.87
2022-11-21T09:49:07.738Z,-1.81
2022-11-21T09:54:10.744Z,-1.77
2022-11-21T09:59:29.417Z,-1.78
2022-11-21T10:04:32.623Z,-1.67
2022-11-21T10:10:23.668Z,-1.56
2022-11-21T10:15:51.776Z,-1.46
2022-11-21T10:21:18.008Z,-1.45
2022-11-21T10:26:39.343Z,-1.52
2022-11-21T10:31:43.841Z,-1.53
2022-11-21T10:37:01.754Z,-1.53
2022-11-21T10:42:23.150Z,-1.56
2022-11-21T10:47:33.885Z,-1.64
2022-11-21T10:52:45.603Z,-1.67
2022-11-21T10:57:51.145Z,-1.68
2022-11-21T11:02:57.019Z,-1.62
2022-11-21T11:08:03.505Z,-1.62
2022-11-21T11:19:35.644Z,-1.63
2022-11-21T11:24:57.483Z,-1.59
2022-11-21T11:30:07.558Z,-1.43
2022-11-21T11:35:13.615Z,-1.34
2022-11-21T11:40:37.224Z,-1.25
2022-11-21T11:46:25.389Z,-1.27
2022-11-21T11:51:38.636Z,-1.33
2022-11-21T11:56:43.596Z,-1.36
2022-11-21T12:01:52.816Z,-1.38
2022-11-21T12:12:42.678Z,-1.34
2022-11-21T12:17:54.706Z,-1.30
2022-11-21T12:22:58.120Z,-1.29
2022-11-21T12:28:03.472Z,-1.28
2022-11-21T12:33:22.663Z,-1.27
2022-11-21T12:39:06.524Z,-1.26
2022-11-21T12:44:09.536Z,-1.28
2022-11-21T12:49:51.984Z,-1.31
2022-11-21T12:55:00.911Z,-1.34
2022-11-21T13:00:24.084Z,-1.40
2022-11-21T13:05:30.687Z,-1.42
2022-11-21T13:10:34.375Z,-1.45
2022-11-21T13:16:06.700Z,-1.47
2022-11-21T13:21:42.266Z,-1.55
2022-11-21T13:26:51.545Z,-1.57
2022-11-21T13:31:54.534Z,-1.58
2022-11-21T13:36:57.840Z,-1.63
2022-11-21T13:42:22.658Z,-1.66
2022-11-21T13:47:25.920Z,-1.68
2022-11-21T13:52:40.978Z,-1.72
2022-11-21T13:57:53.182Z,-1.79
2022-11-21T14:03:08.887Z,-1.83
2022-11-21T14:08:27.770Z,-1.84
2022-11-21T14:13:34.605Z,-1.83
2022-11-21T14:18:39.086Z,-1.83
2022-11-21T14:23:44.463Z,-1.85
2022-11-21T14:28:48.179Z,-1.86
2022-11-21T14:33:58.451Z,-1.88
2022-11-21T14:39:35.492Z,-1.88
2022-11-21T14:44:31.843Z,-1.88
2022-11-21T14:49:35.023Z,-1.89
2022-11-21T14:55:06.126Z,-1.89
2022-11-21T15:00:36.112Z,-1.88
2022-11-21T15:06:08.624Z,-1.86
2022-11-21T15:11:03.493Z,-1.85
2022-11-21T15:16:06.653Z,-1.82
2022-11-21T15:21:14.574Z,-1.83
2022-11-21T15:26:33.463Z,-1.81
2022-11-21T15:31:36.463Z,-1.82
2022-11-21T15:36:39.572Z,-1.80
2022-11-21T15:41:42.574Z,-1.80
2022-11-21T15:46:47.183Z,-1.79
2022-11-21T15:52:06.630Z,-1.76
2022-11-21T15:57:10.811Z,-1.78
2022-11-21T16:02:14.665Z,-1.77
2022-11-21T16:07:17.870Z,-1.77
2022-11-21T16:12:21.102Z,-1.74
2022-11-21T16:17:24.103Z,-1.72
2022-11-21T16:22:27.113Z,-1.69
2022-11-21T16:27:32.538Z,-1.68
2022-11-21T16:32:35.572Z,-1.68
2022-11-21T16:37:38.684Z,-1.68
2022-11-21T16:42:41.690Z,-1.67
2022-11-21T16:47:48.812Z,-1.67
2022-11-21T16:52:52.416Z,-1.69
2022-11-21T16:57:58.188Z,-1.71
2022-11-21T17:03:01.504Z,-1.74
2022-11-21T17:08:04.612Z,-1.75
2022-11-21T17:13:07.820Z,-1.77
2022-11-21T17:18:11.236Z,-1.74
2022-11-21T17:23:14.348Z,-1.72
2022-11-21T17:28:17.459Z,-1.69
2022-11-21T17:33:22.005Z,-1.69
2022-11-21T17:38:25.107Z,-1.68
2022-11-21T17:43:29.156Z,-1.68
2022-11-21T17:48:33.627Z,-1.66
2022-11-21T17:53:38.779Z,-1.66
2022-11-21T17:58:41.839Z,-1.65
2022-11-21T18:03:47.099Z,-1.64
2022-11-21T18:08:50.312Z,-1.61
2022-11-21T18:13:53.525Z,-1.59
2022-11-21T18:19:00.292Z,-1.55
2022-11-21T18:24:03.937Z,-1.53
2022-11-21T18:34:32.583Z,-1.48
2022-11-21T18:39:35.690Z,-1.49
2022-11-21T18:44:38.694Z,-1.51
2022-11-21T18:49:41.710Z,-1.50
2022-11-21T18:54:44.912Z,-1.48
2022-11-21T18:59:48.122Z,-1.46
2022-11-21T19:04:51.230Z,-1.43
2022-11-21T19:09:54.244Z,-1.41
2022-11-21T19:14:57.248Z,-1.38
2022-11-21T19:20:00.251Z,-1.37
2022-11-21T19:25:03.256Z,-1.33
2022-11-21T19:30:06.843Z,-1.32
2022-11-21T19:35:10.691Z,-1.29
2022-11-21T19:40:13.918Z,-1.28
2022-11-21T19:45:17.027Z,-1.25
2022-11-21T19:50:20.029Z,-1.23
2022-11-21T19:55:23.342Z,-1.21
2022-11-21T20:00:26.250Z,-1.18
2022-11-21T20:05:29.278Z,-1.17
2022-11-21T20:10:35.530Z,-1.16
2022-11-21T20:15:39.568Z,-1.15
2022-11-21T20:20:42.575Z,-1.13
2022-11-21T20:25:50.280Z,-1.11
2022-11-21T20:30:53.299Z,-1.10
2022-11-21T20:36:03.346Z,-1.06
2022-11-21T20:41:06.384Z,-1.07
2022-11-21T20:46:14.088Z,-1.06
2022-11-21T20:52:31.467Z,-1.04
2022-11-21T20:56:44.544Z,-1.02
2022-11-21T21:01:47.966Z,-0.98
2022-11-21T21:06:51.005Z,-0.95
2022-11-21T21:11:54.226Z,-0.94
2022-11-21T21:16:57.526Z,-0.93
2022-11-21T21:22:00.744Z,-0.94
2022-11-21T21:27:03.849Z,-0.93
2022-11-21T21:32:07.171Z,-0.94
2022-11-21T21:37:10.379Z,-0.94
2022-11-21T21:42:13.583Z,-0.94
2022-11-21T21:47:17.421Z,-0.94
2022-11-21T21:52:20.620Z,-0.93
2022-11-21T21:57:23.524Z,-0.90
2022-11-21T22:02:26.633Z,-0.88
2022-11-21T22:07:29.675Z,-0.86
2022-11-21T22:12:32.955Z,-0.85
2022-11-21T22:17:35.857Z,-0.81
2022-11-21T22:22:38.969Z,-0.79
2022-11-21T22:27:42.083Z,-0.78
2022-11-21T22:32:45.388Z,-0.74
2022-11-21T22:37:51.877Z,-0.72
2022-11-21T22:42:54.883Z,-0.71
2022-11-21T22:47:57.785Z,-0.67
2022-11-21T22:53:00.896Z,-0.64
2022-11-21T22:58:03.802Z,-0.63
2022-11-21T23:03:06.911Z,-0.62
2022-11-21T23:08:10.221Z,-0.62
2022-11-21T23:13:13.231Z,-0.60
2022-11-21T23:18:16.233Z,-0.61
2022-11-21T23:23:20.533Z,-0.63
2022-11-21T23:28:23.988Z,-0.64
2022-11-21T23:33:26.995Z,-0.63
2022-11-21T23:38:30.002Z,-0.61
2022-11-21T23:43:33.218Z,-0.61
2022-11-21T23:48:36.325Z,-0.60
2022-11-21T23:53:39.531Z,-0.60
2022-11-21T23:58:42.538Z,-0.58
